Time;durP1;ratioP1;P1;durP2;ratioP2;P2;SDS_P1;SDS_P2;PMS_P1;PMS_P2;Temp;Humidity;BMP_temperature;BMP_pressure;BME280_temperature;BME280_humidity;BME280_pressure;Samples;Min_cycle;Max_cycle;Signal;HPM_P1;HPM_P2
2022/06/07 00:01:35;;;;;;;4.07;3.22;;;;;;;18.39;75.98;96208.81;5005693;28;20113;-80
2022/06/07 00:04:02;;;;;;;5.72;3.75;;;;;;;18.31;76.45;96212.63;5012870;28;20046;-79
2022/06/07 00:06:29;;;;;;;3.85;3.38;;;;;;;18.25;77.08;96208.59;5014415;28;20129;-80
2022/06/07 00:08:56;;;;;;;5.68;3.45;;;;;;;18.18;77.69;96208.50;5013113;28;20042;-79
2022/06/07 00:11:26;;;;;;;7.00;3.65;;;;;;;18.17;78.20;96217.94;5012002;28;20049;-79
2022/06/07 00:13:55;;;;;;;5.57;4.28;;;;;;;17.86;81.35;96225.31;5019856;28;20042;-79
2022/06/07 00:16:21;;;;;;;7.40;5.22;;;;;;;17.67;83.88;96222.59;5011386;28;20074;-79
2022/06/07 00:18:48;;;;;;;7.32;4.53;;;;;;;17.73;84.38;96215.63;5011897;28;20564;-79
2022/06/07 00:21:14;;;;;;;6.80;4.70;;;;;;;17.79;84.37;96218.88;5011493;28;20042;-79
2022/06/07 00:23:41;;;;;;;8.20;4.18;;;;;;;17.86;83.19;96213.50;5013072;28;20056;-80
2022/06/07 00:26:09;;;;;;;4.97;4.05;;;;;;;17.81;82.88;96222.88;5012856;28;20416;-80
2022/06/07 00:28:37;;;;;;;6.57;4.57;;;;;;;17.63;81.74;96221.72;5012254;28;20563;-80
2022/06/07 00:31:03;;;;;;;6.60;3.92;;;;;;;17.60;82.40;96219.72;5009880;28;20053;-79
2022/06/07 00:33:30;;;;;;;6.32;4.10;;;;;;;17.54;82.11;96221.16;5011590;28;20065;-80
2022/06/07 00:35:57;;;;;;;6.65;4.32;;;;;;;17.40;83.43;96214.25;5011215;28;20038;-79
2022/06/07 00:38:23;;;;;;;6.10;4.10;;;;;;;17.39;83.87;96223.69;5011263;28;20049;-79
2022/06/07 00:40:50;;;;;;;8.43;4.40;;;;;;;17.35;83.62;96217.31;5012016;28;20045;-79
2022/06/07 00:43:16;;;;;;;5.15;4.35;;;;;;;17.22;84.66;96213.09;5010562;28;20421;-79
2022/06/07 00:45:44;;;;;;;5.63;4.65;;;;;;;17.16;85.40;96214.56;5011086;28;20053;-79
2022/06/07 00:48:11;;;;;;;6.07;4.68;;;;;;;17.17;86.00;96205.16;5010501;28;20057;-80
2022/06/07 00:50:46;;;;;;;7.30;4.78;;;;;;;17.11;86.71;96212.91;5012239;28;20041;-80
2022/06/07 00:53:25;;;;;;;7.35;4.90;;;;;;;17.22;87.14;96213.09;5011668;28;20054;-79
2022/06/07 00:55:52;;;;;;;9.00;4.85;;;;;;;17.24;85.88;96210.81;5012610;28;20065;-80
2022/06/07 00:58:19;;;;;;;6.78;5.20;;;;;;;17.16;85.68;96229.13;5011911;28;20053;-79
2022/06/07 01:00:48;;;;;;;11.82;5.85;;;;;;;16.98;87.68;96227.19;5011549;28;20041;-79
2022/06/07 01:03:20;;;;;;;9.40;6.13;;;;;;;16.55;91.36;96231.75;5011794;28;20058;-81
2022/06/07 01:05:47;;;;;;;11.07;6.60;;;;;;;16.06;94.89;96230.25;5012243;28;20042;-81
2022/06/07 01:11:00;;;;;;;8.90;7.07;;;;;;;16.08;96.96;96233.47;5014620;28;20453;-82
2022/06/07 01:13:32;;;;;;;8.82;6.65;;;;;;;15.97;96.94;96232.38;5043087;28;20037;-81
2022/06/07 01:16:04;;;;;;;11.15;8.15;;;;;;;15.51;100.00;96210.06;5037811;28;20052;-82
2022/06/07 01:18:32;;;;;;;13.52;8.48;;;;;;;15.40;100.00;96193.31;5036781;28;20408;-80
2022/06/07 01:21:32;;;;;;;9.45;7.80;;;;;;;15.36;100.00;96184.19;5049992;28;20455;-78
2022/06/07 01:23:58;;;;;;;14.23;9.90;;;;;;;15.28;100.00;96163.19;5054895;28;20507;-82
2022/06/07 01:26:25;;;;;;;10.82;8.38;;;;;;;15.26;100.00;96149.06;5059678;28;20051;-79
2022/06/07 01:28:54;;;;;;;13.10;9.02;;;;;;;15.20;100.00;96147.72;5054260;28;20037;-84
2022/06/07 01:31:21;;;;;;;10.48;9.38;;;;;;;15.22;100.00;96147.38;5065617;28;21539;-81
2022/06/07 01:33:47;;;;;;;16.45;10.13;;;;;;;15.19;100.00;96135.16;5062323;28;20044;-82
2022/06/07 01:36:18;;;;;;;17.58;11.20;;;;;;;15.10;100.00;96112.59;5040622;28;20523;-83
2022/06/07 01:41:53;;;;;;;15.65;11.20;;;;;;;15.04;100.00;96092.06;5059265;28;20049;-82
2022/06/07 01:44:19;;;;;;;15.05;11.82;;;;;;;15.14;100.00;96073.16;5025621;28;20052;-84
2022/06/07 01:46:45;;;;;;;13.73;11.57;;;;;;;15.21;100.00;96063.50;5023509;28;20046;-82
2022/06/07 01:49:12;;;;;;;14.48;11.60;;;;;;;15.20;100.00;96072.88;5038817;28;20045;-83
2022/06/07 01:51:39;;;;;;;20.08;12.45;;;;;;;15.18;100.00;96058.69;5043893;28;20052;-82
2022/06/07 01:54:07;;;;;;;14.80;12.13;;;;;;;15.11;100.00;96053.84;5024694;28;20084;-83
2022/06/07 01:56:33;;;;;;;14.68;11.82;;;;;;;15.10;100.00;96052.25;5044898;28;20053;-82
2022/06/07 01:59:00;;;;;;;17.17;11.13;;;;;;;15.19;100.00;96043.84;5045261;28;20041;-83
2022/06/07 02:01:26;;;;;;;16.88;11.63;;;;;;;15.09;100.00;96045.19;5044479;28;20038;-84
2022/06/07 02:03:53;;;;;;;14.30;11.32;;;;;;;14.97;100.00;96039.78;5042856;28;20471;-83
2022/06/07 02:06:20;;;;;;;16.10;12.23;;;;;;;14.89;100.00;96038.81;5038990;28;20563;-82
2022/06/07 02:08:48;;;;;;;16.20;12.23;;;;;;;14.84;100.00;96030.84;5037428;28;20041;-81
2022/06/07 02:11:20;;;;;;;12.23;10.23;;;;;;;14.93;100.00;96019.69;5052079;28;20080;-81
2022/06/07 02:13:47;;;;;;;16.33;11.93;;;;;;;15.00;100.00;96014.41;5078655;28;20048;-81
2022/06/07 02:16:16;;;;;;;13.85;11.48;;;;;;;15.06;100.00;96018.47;5068404;28;20090;-82
2022/06/07 02:18:43;;;;;;;17.35;11.70;;;;;;;14.98;100.00;96011.22;5071380;28;20052;-81
2022/06/07 02:21:11;;;;;;;14.02;11.20;;;;;;;15.07;100.00;96009.09;5073435;28;20057;-81
2022/06/07 02:23:38;;;;;;;13.35;9.90;;;;;;;15.18;100.00;96001.91;5072221;28;20102;-82
2022/06/07 02:26:12;;;;;;;13.05;10.50;;;;;;;15.25;100.00;95996.59;5071291;28;20533;-81
2022/06/07 02:28:43;;;;;;;11.48;9.85;;;;;;;15.26;100.00;95992.69;5074368;28;20060;-81
2022/06/07 02:31:13;;;;;;;10.73;8.77;;;;;;;15.21;100.00;95992.97;5077198;28;20045;-82
2022/06/07 02:33:44;;;;;;;13.52;8.52;;;;;;;15.19;100.00;95987.06;5078172;28;20846;-81
2022/06/07 02:36:16;;;;;;;9.05;7.25;;;;;;;15.18;100.00;95985.44;5083287;28;20052;-82
2022/06/07 02:38:43;;;;;;;9.30;7.30;;;;;;;15.15;100.00;95983.44;5089963;28;20059;-84
2022/06/07 02:41:14;;;;;;;10.13;7.07;;;;;;;15.17;100.00;95986.59;5060200;28;20049;-81
2022/06/07 02:43:41;;;;;;;12.55;7.93;;;;;;;15.09;100.00;95980.16;5052884;28;20045;-81
2022/06/07 02:46:07;;;;;;;10.77;7.70;;;;;;;15.07;100.00;95981.66;5052954;28;20053;-80
2022/06/07 02:48:34;;;;;;;9.23;7.60;;;;;;;15.11;100.00;95983.34;5055081;28;20056;-81
2022/06/07 02:51:00;;;;;;;10.50;8.45;;;;;;;15.04;100.00;95998.84;5037827;28;20045;-80
2022/06/07 02:53:27;;;;;;;11.05;8.98;;;;;;;15.00;100.00;95992.47;5043889;28;20048;-80
2022/06/07 02:55:54;;;;;;;11.20;8.80;;;;;;;15.08;100.00;95994.22;5042871;28;20041;-81
2022/06/07 02:58:22;;;;;;;15.68;9.55;;;;;;;15.07;100.00;95998.13;5055555;28;20461;-80
2022/06/07 03:00:48;;;;;;;12.88;9.18;;;;;;;15.01;100.00;95999.53;5056112;28;20052;-83
2022/06/07 03:03:15;;;;;;;12.98;9.40;;;;;;;15.01;100.00;96002.28;5064128;28;20053;-85
2022/06/07 03:05:44;;;;;;;12.55;9.63;;;;;;;15.01;100.00;96005.81;5066577;28;20067;-87
2022/06/07 03:11:11;;;;;;;9.93;7.22;;;;;;;14.88;100.00;96005.13;5076904;22;20039;-84
2022/06/07 03:13:40;;;;;;;10.20;7.57;;;;;;;14.83;100.00;96008.13;4993062;28;20097;-86
2022/06/07 03:18:47;;;;;;;8.35;6.80;;;;;;;14.45;100.00;96024.31;4993656;28;20053;-83
2022/06/07 03:21:16;;;;;;;8.45;6.47;;;;;;;14.50;100.00;96029.56;5004694;28;20060;-82
2022/06/07 03:23:42;;;;;;;9.25;6.35;;;;;;;14.22;100.00;96041.31;4997669;28;20058;-84
2022/06/07 03:26:13;;;;;;;11.98;6.57;;;;;;;14.27;100.00;96038.34;5008703;28;20046;-83
2022/06/07 03:28:41;;;;;;;8.68;6.85;;;;;;;14.33;100.00;96042.41;4994764;28;20050;-84
2022/06/07 03:31:12;;;;;;;9.35;6.57;;;;;;;14.34;100.00;96038.50;5009317;28;20061;-82
2022/06/07 03:33:40;;;;;;;7.78;6.25;;;;;;;14.43;100.00;96041.09;4993562;28;20043;-83
2022/06/07 03:36:12;;;;;;;9.82;6.72;;;;;;;14.51;100.00;96053.06;4982485;28;20082;-82
2022/06/07 03:38:55;;;;;;;7.75;6.25;;;;;;;14.58;100.00;96043.13;5002292;28;20042;-83
2022/06/07 03:41:24;;;;;;;;;;;;;;;14.61;100.00;96036.13;5005843;28;20057;-84
2022/06/07 03:43:54;;;;;;;8.15;6.13;;;;;;;14.64;100.00;96037.38;5005425;28;19926;-84
2022/06/07 03:46:23;;;;;;;7.55;6.07;;;;;;;14.52;100.00;96044.53;5003454;28;20046;-83
2022/06/07 03:48:50;;;;;;;10.07;6.32;;;;;;;14.47;100.00;96049.44;5005987;28;20044;-84
2022/06/07 03:51:20;;;;;;;10.00;8.00;;;;;;;14.46;100.00;96045.91;5001778;28;20047;-82
2022/06/07 03:53:47;;;;;;;11.63;9.27;;;;;;;14.45;100.00;96040.75;5004853;28;20043;-82
2022/06/07 03:56:16;;;;;;;10.85;9.30;;;;;;;14.57;100.00;96040.72;5004907;28;20114;-83
2022/06/07 03:58:45;;;;;;;11.82;9.30;;;;;;;14.52;100.00;96038.25;4990434;28;20524;-82
2022/06/07 04:01:16;;;;;;;11.82;8.45;;;;;;;14.52;100.00;96032.78;4991886;28;20110;-83
2022/06/07 04:03:44;;;;;;;12.20;7.88;;;;;;;14.48;100.00;96031.88;5009499;28;20054;-82
2022/06/07 04:06:26;;;;;;;10.32;7.95;;;;;;;14.49;100.00;96037.00;4973359;28;20046;-82
2022/06/07 04:08:54;;;;;;;10.25;7.40;;;;;;;14.50;100.00;96026.81;5008822;28;20081;-83
2022/06/07 04:11:23;;;;;;;11.20;8.25;;;;;;;14.52;100.00;96030.81;5010013;28;20047;-86
2022/06/07 04:13:51;;;;;;;10.65;8.27;;;;;;;14.55;100.00;96037.53;5012040;28;20102;-86
2022/06/07 04:16:22;;;;;;;10.98;8.43;;;;;;;14.51;100.00;96042.94;4993775;28;20050;-83
2022/06/07 04:18:50;;;;;;;10.30;7.50;;;;;;;14.52;100.00;96035.50;5010390;28;20038;-84
2022/06/07 04:21:17;;;;;;;11.82;7.40;;;;;;;14.54;100.00;96027.72;5011131;28;20082;-82
2022/06/07 04:23:47;;;;;;;10.57;7.90;;;;;;;14.57;100.00;96035.25;4985908;28;20050;-83
2022/06/07 04:26:17;;;;;;;12.30;6.78;;;;;;;14.36;100.00;96051.88;5010734;28;20054;-85
2022/06/07 04:28:45;;;;;;;9.95;6.47;;;;;;;14.23;100.00;96058.53;4994862;28;20102;-84
2022/06/07 04:31:16;;;;;;;10.38;6.35;;;;;;;14.22;100.00;96049.53;5011059;28;20066;-84
2022/06/07 04:33:46;;;;;;;9.65;6.10;;;;;;;14.14;100.00;96049.66;5011168;28;20046;-84
2022/06/07 04:36:18;;;;;;;7.07;5.07;;;;;;;14.06;100.00;96049.47;5013196;28;20046;-85
2022/06/07 04:38:47;;;;;;;8.45;6.20;;;;;;;14.04;100.00;96046.31;5012487;28;20043;-86
2022/06/07 04:41:15;;;;;;;10.65;6.40;;;;;;;14.03;100.00;96043.88;4993098;28;20054;-83
2022/06/07 04:43:42;;;;;;;7.60;6.47;;;;;;;14.07;100.00;96053.00;4993563;28;20049;-84
2022/06/07 04:46:14;;;;;;;9.55;6.50;;;;;;;14.18;100.00;96045.88;4986462;28;20042;-83
2022/06/07 04:48:42;;;;;;;8.25;6.45;;;;;;;14.24;100.00;96039.00;5004694;28;20125;-83
2022/06/07 04:51:13;;;;;;;7.82;5.57;;;;;;;14.24;100.00;96038.22;4995780;28;20046;-83
2022/06/07 04:53:40;;;;;;;6.88;5.80;;;;;;;14.17;100.00;96038.81;4992981;28;20046;-83
2022/06/07 04:56:08;;;;;;;7.65;5.55;;;;;;;14.15;100.00;96035.66;4999888;28;20050;-82
2022/06/07 04:58:37;;;;;;;9.23;7.22;;;;;;;14.16;100.00;96037.25;5003646;28;20066;-82
2022/06/07 05:01:14;;;;;;;6.35;5.55;;;;;;;14.21;100.00;96037.00;5007506;28;20103;-84
2022/06/07 05:03:43;;;;;;;7.97;5.32;;;;;;;14.23;100.00;96029.22;5013900;28;20034;-86
2022/06/07 05:06:41;;;;;;;5.57;4.95;;;;;;;14.15;100.00;96038.38;5001674;28;20050;-83
2022/06/07 05:09:13;;;;;;;6.75;5.15;;;;;;;14.13;100.00;96048.09;4995112;28;20034;-84
2022/06/07 05:11:42;;;;;;;5.23;4.73;;;;;;;14.14;100.00;96039.50;5003768;28;20061;-85
2022/06/07 05:14:09;;;;;;;8.65;5.47;;;;;;;14.12;100.00;96041.81;4998404;28;20054;-79
2022/06/07 05:16:38;;;;;;;7.63;5.28;;;;;;;14.06;100.00;96027.56;4990829;28;20508;-79
2022/06/07 05:19:05;;;;;;;7.20;5.57;;;;;;;14.17;100.00;96038.81;4990450;28;20081;-79
2022/06/07 05:21:32;;;;;;;6.13;5.20;;;;;;;14.27;100.00;96032.06;4990979;28;20050;-79
2022/06/07 05:23:59;;;;;;;5.63;4.90;;;;;;;14.14;100.00;96039.50;4990995;28;20042;-79
2022/06/07 05:26:29;;;;;;;5.65;4.88;;;;;;;14.10;100.00;96044.13;4998273;28;20046;-79
2022/06/07 05:28:56;;;;;;;7.88;5.22;;;;;;;14.06;100.00;96048.69;4990808;28;20141;-79
2022/06/07 05:31:24;;;;;;;5.47;4.80;;;;;;;14.13;100.00;96048.88;4990177;28;20049;-79
2022/06/07 05:33:51;;;;;;;6.68;5.32;;;;;;;14.18;100.00;96045.09;4990672;28;20042;-79
2022/06/07 05:36:17;;;;;;;6.35;5.00;;;;;;;14.20;100.00;96040.06;4990403;28;20046;-80
2022/06/07 05:38:43;;;;;;;7.40;5.65;;;;;;;14.19;100.00;96036.53;4990852;28;20469;-79
2022/06/07 05:41:15;;;;;;;6.60;5.28;;;;;;;14.18;100.00;96039.63;4998999;28;20525;-79
2022/06/07 05:43:41;;;;;;;6.90;5.05;;;;;;;14.16;100.00;96031.75;5010372;28;20041;-79
2022/06/07 05:46:08;;;;;;;9.10;5.07;;;;;;;14.09;100.00;96039.75;5000588;28;20682;-79
2022/06/07 05:48:35;;;;;;;7.50;5.22;;;;;;;14.07;100.00;96033.84;4990507;28;20508;-79
2022/06/07 05:51:02;;;;;;;5.85;4.95;;;;;;;14.15;100.00;96041.13;4990214;28;20049;-79
2022/06/07 05:53:28;;;;;;;6.25;5.05;;;;;;;14.11;100.00;96037.50;4990681;28;20050;-80
2022/06/07 05:55:56;;;;;;;6.65;5.60;;;;;;;14.07;100.00;96034.63;4990385;28;20050;-79
2022/06/07 05:58:25;;;;;;;6.50;5.22;;;;;;;14.13;100.00;96031.66;4990085;28;20429;-79
2022/06/07 06:00:51;;;;;;;10.15;5.43;;;;;;;14.18;100.00;96036.88;4992033;28;20046;-79
2022/06/07 06:03:18;;;;;;;6.95;5.25;;;;;;;14.18;100.00;96045.88;4994397;28;20038;-80
2022/06/07 06:05:46;;;;;;;5.65;4.80;;;;;;;14.17;100.00;96038.81;4994773;28;20042;-79
2022/06/07 06:11:04;;;;;;;7.68;5.50;;;;;;;14.09;100.00;96046.06;4999584;28;20116;-79
2022/06/07 06:13:32;;;;;;;6.28;5.07;;;;;;;14.14;100.00;96038.72;4994199;28;20049;-80
2022/06/07 06:16:03;;;;;;;6.55;5.30;;;;;;;14.19;100.00;96042.00;4994242;28;20039;-79
2022/06/07 06:18:32;;;;;;;7.35;5.88;;;;;;;14.21;100.00;96045.22;5006196;28;20397;-82
2022/06/07 06:20:58;;;;;;;8.75;5.90;;;;;;;14.25;100.00;96040.63;5021361;28;20422;-82
2022/06/07 06:23:25;;;;;;;10.93;6.00;;;;;;;14.28;100.00;96045.41;4986220;28;20050;-80
2022/06/07 06:25:52;;;;;;;12.05;6.15;;;;;;;14.27;100.00;96043.81;5001963;28;20054;-82
2022/06/07 06:28:19;;;;;;;8.23;5.97;;;;;;;14.23;100.00;96053.84;5002736;28;20065;-80
2022/06/07 06:30:48;;;;;;;6.82;5.72;;;;;;;14.26;100.00;96044.97;5001868;28;20053;-81
2022/06/07 06:33:15;;;;;;;8.98;5.88;;;;;;;14.33;100.00;96041.63;5008536;28;20148;-81
2022/06/07 06:35:47;;;;;;;8.18;5.90;;;;;;;14.31;100.00;96041.97;4993695;28;20074;-79
2022/06/07 06:38:14;;;;;;;9.03;7.03;;;;;;;14.24;100.00;96032.75;4993453;28;20085;-79
2022/06/07 06:40:40;;;;;;;9.77;6.60;;;;;;;14.22;100.00;96030.38;4998809;28;20049;-78
2022/06/07 06:43:07;;;;;;;8.70;6.93;;;;;;;14.23;100.00;96037.44;4993106;28;20050;-78
2022/06/07 06:45:33;;;;;;;9.73;6.57;;;;;;;14.14;100.00;96028.56;4992700;28;20045;-78
2022/06/07 06:48:03;;;;;;;9.50;7.20;;;;;;;14.24;100.00;96030.81;4993300;28;20050;-78
2022/06/07 06:50:29;;;;;;;9.13;7.22;;;;;;;14.34;100.00;96038.50;4993648;28;20412;-78
2022/06/07 06:52:56;;;;;;;9.65;7.90;;;;;;;14.27;100.00;96041.06;4993592;28;20038;-77
2022/06/07 06:55:23;;;;;;;10.77;8.90;;;;;;;14.22;100.00;96035.84;4992997;28;20065;-77
2022/06/07 06:57:49;;;;;;;15.40;9.50;;;;;;;14.14;100.00;96030.50;4993603;28;20046;-78
2022/06/07 07:00:17;;;;;;;11.93;9.45;;;;;;;14.08;100.00;96028.00;4992936;28;20053;-77
2022/06/07 07:02:44;;;;;;;15.77;10.60;;;;;;;13.95;100.00;96015.53;4993481;28;20053;-78
2022/06/07 07:05:13;;;;;;;11.75;7.80;;;;;;;14.02;100.00;96015.72;4992873;28;20050;-77
2022/06/07 07:07:40;;;;;;;9.02;7.22;;;;;;;14.21;100.00;96022.50;4993225;28;20186;-78
2022/06/07 07:10:08;;;;;;;9.85;7.28;;;;;;;14.34;100.00;96021.28;4993567;28;20624;-77
2022/06/07 07:12:36;;;;;;;8.88;6.97;;;;;;;14.43;100.00;96023.88;5012146;28;20046;-78
2022/06/07 07:15:05;;;;;;;9.70;7.18;;;;;;;14.50;100.00;96029.56;5012244;28;20057;-77
2022/06/07 07:17:33;;;;;;;11.43;8.32;;;;;;;14.39;100.00;96028.47;5012615;28;20054;-77
2022/06/07 07:19:59;;;;;;;10.45;9.18;;;;;;;14.34;100.00;96027.56;5012349;28;20696;-76
2022/06/07 07:22:27;;;;;;;9.43;8.43;;;;;;;14.23;100.00;96037.44;5012125;28;20049;-77
2022/06/07 07:24:54;;;;;;;13.48;8.75;;;;;;;14.18;100.00;96034.16;5012688;28;20052;-78
2022/06/07 07:27:20;;;;;;;11.30;7.90;;;;;;;14.19;100.00;96033.00;5011990;28;20054;-76
2022/06/07 07:29:47;;;;;;;14.00;8.73;;;;;;;14.14;100.00;96038.72;5012368;28;20053;-77
2022/06/07 07:32:13;;;;;;;8.95;7.50;;;;;;;14.24;100.00;96038.22;5011751;28;20065;-77
2022/06/07 07:34:40;;;;;;;9.82;7.78;;;;;;;14.30;100.00;96040.38;5012226;28;20046;-79
2022/06/07 07:37:06;;;;;;;7.35;5.30;;;;;;;14.24;100.00;96047.22;5011722;28;20046;-76
2022/06/07 07:39:34;;;;;;;8.40;5.45;;;;;;;14.28;100.00;96042.66;5011877;28;20053;-77
2022/06/07 07:42:01;;;;;;;6.80;5.45;;;;;;;14.22;100.00;96046.78;5011840;28;20044;-77
2022/06/07 07:44:28;;;;;;;6.97;4.93;;;;;;;14.25;100.00;96051.59;5011818;28;20681;-77
2022/06/07 07:46:55;;;;;;;6.93;4.80;;;;;;;14.30;100.00;96040.38;5011925;28;20069;-76
2022/06/07 07:49:23;;;;;;;6.45;5.22;;;;;;;14.38;100.00;96048.78;5011448;28;20057;-77
2022/06/07 07:51:52;;;;;;;6.70;5.22;;;;;;;14.48;100.00;96048.31;5011694;28;20042;-76
2022/06/07 07:54:22;;;;;;;8.13;6.05;;;;;;;14.49;100.00;96060.84;5011322;28;20070;-78
2022/06/07 07:56:50;;;;;;;5.90;5.30;;;;;;;14.53;100.00;96056.28;5011601;28;20681;-76
2022/06/07 07:59:19;;;;;;;6.68;5.15;;;;;;;14.57;100.00;96051.69;5011267;28;20521;-76
2022/06/07 08:01:46;;;;;;;6.20;4.35;;;;;;;14.52;100.00;96058.22;5011770;28;20128;-76
2022/06/07 08:04:13;;;;;;;7.07;4.75;;;;;;;14.46;100.00;96062.34;5011241;28;20046;-77
2022/06/07 08:06:39;;;;;;;5.88;5.30;;;;;;;14.48;100.00;96051.06;5011510;28;20058;-77
2022/06/07 08:09:08;;;;;;;8.52;6.25;;;;;;;14.36;100.00;96054.63;5011257;28;20049;-77
2022/06/07 08:11:37;;;;;;;7.60;5.25;;;;;;;14.46;100.00;96050.56;5024679;28;20042;-77
2022/06/07 08:14:07;;;;;;;5.78;4.20;;;;;;;14.44;100.00;96058.34;5010968;28;20049;-77
2022/06/07 08:16:33;;;;;;;5.18;4.68;;;;;;;14.42;100.00;96058.69;5011447;28;20497;-77
2022/06/07 08:19:00;;;;;;;5.78;4.90;;;;;;;14.19;100.00;96069.38;5011506;28;20042;-79
2022/06/07 08:21:28;;;;;;;6.10;4.80;;;;;;;14.25;100.00;96067.19;5019189;28;20045;-77
2022/06/07 08:23:55;;;;;;;5.13;4.63;;;;;;;14.26;100.00;96085.25;5010282;28;20045;-76
2022/06/07 08:26:24;;;;;;;7.18;4.72;;;;;;;14.14;100.00;96080.59;5010785;28;20046;-77
2022/06/07 08:28:51;;;;;;;7.10;5.47;;;;;;;14.15;100.00;96084.13;5011234;28;20073;-77
2022/06/07 08:31:20;;;;;;;6.38;4.40;;;;;;;14.07;100.00;96083.91;5010594;28;20052;-77
2022/06/07 08:39:18;;;;;;;6.60;4.68;;;;;;;14.22;100.00;96085.13;5007986;28;20408;-77
2022/06/07 08:41:47;;;;;;;5.65;4.57;;;;;;;14.13;100.00;96100.09;5011157;28;20038;-77
2022/06/07 08:44:17;;;;;;;6.22;4.95;;;;;;;14.11;100.00;96092.25;5010377;28;20050;-77
2022/06/07 08:46:45;;;;;;;8.20;5.03;;;;;;;14.08;100.00;96101.94;5010888;28;20449;-77
2022/06/07 08:49:13;;;;;;;7.35;5.32;;;;;;;14.03;100.00;96087.69;5010362;28;20046;-77
2022/06/07 08:51:49;;;;;;;6.97;5.47;;;;;;;14.00;100.00;96082.94;5010723;28;20038;-77
2022/06/07 08:54:21;;;;;;;9.50;6.43;;;;;;;14.02;100.00;96072.41;5010377;28;20117;-77
2022/06/07 08:56:48;;;;;;;6.82;5.95;;;;;;;14.13;100.00;96065.31;5010854;28;20462;-78
2022/06/07 08:59:17;;;;;;;7.40;5.82;;;;;;;14.04;100.00;96076.41;5010350;28;20068;-76
2022/06/07 09:01:53;;;;;;;8.02;6.32;;;;;;;14.06;100.00;96063.16;5010710;28;20057;-76
2022/06/07 09:04:22;;;;;;;8.82;6.43;;;;;;;14.12;100.00;96058.25;5010163;28;20461;-77
2022/06/07 09:06:52;;;;;;;10.75;7.75;;;;;;;14.11;100.00;96051.19;5010561;28;20092;-76
2022/06/07 09:09:21;;;;;;;8.93;7.07;;;;;;;14.24;100.00;96049.97;5008873;28;20061;-77
2022/06/07 09:14:39;;;;;;;8.05;7.13;;;;;;;14.10;100.00;96057.81;4990772;28;20049;-76
2022/06/07 09:17:14;;;;;;;7.47;5.82;;;;;;;14.15;100.00;96052.09;4990628;28;20050;-76
2022/06/07 09:19:42;;;;;;;8.48;5.78;;;;;;;14.15;100.00;96060.28;4990851;28;20053;-76
2022/06/07 09:22:16;;;;;;;6.93;5.43;;;;;;;14.01;100.00;96060.69;4990321;28;20046;-77
2022/06/07 09:24:53;;;;;;;7.53;5.55;;;;;;;14.00;100.00;96059.09;4990642;28;20038;-77
2022/06/07 09:27:23;;;;;;;7.07;5.93;;;;;;;14.07;100.00;96061.22;4990393;28;20068;-75
2022/06/07 09:29:53;;;;;;;8.05;6.30;;;;;;;14.11;100.00;96062.13;4990705;28;20525;-78
2022/06/07 09:32:23;;;;;;;7.80;6.68;;;;;;;14.11;100.00;96056.66;4990255;28;20105;-76
2022/06/07 09:34:57;;;;;;;10.02;6.97;;;;;;;13.88;100.00;96061.03;4990394;28;20077;-76
2022/06/07 09:37:38;;;;;;;10.52;8.05;;;;;;;13.95;100.00;96047.59;4990526;28;20050;-77
2022/06/07 09:40:21;;;;;;;12.40;9.05;;;;;;;14.00;100.00;96039.13;5005299;28;20049;-77
2022/06/07 09:42:54;;;;;;;9.85;8.32;;;;;;;14.05;100.00;96036.16;5029946;28;20062;-77
2022/06/07 09:45:25;;;;;;;10.90;9.05;;;;;;;14.05;100.00;96042.41;5029489;28;20050;-76
2022/06/07 09:47:53;;;;;;;12.32;10.05;;;;;;;14.03;100.00;96035.69;5030037;28;20042;-77
2022/06/07 09:50:23;;;;;;;16.63;12.00;;;;;;;14.14;100.00;96035.97;5029539;28;20049;-77
2022/06/07 09:52:53;;;;;;;13.00;10.43;;;;;;;14.24;100.00;96036.28;5029537;28;20045;-77
2022/06/07 09:55:25;;;;;;;19.58;14.25;;;;;;;14.28;100.00;96028.97;5029377;28;20045;-77
2022/06/07 09:58:06;;;;;;;20.27;15.25;;;;;;;14.24;100.00;96022.59;5029706;28;20042;-78
2022/06/07 10:00:40;;;;;;;17.65;14.25;;;;;;;14.40;100.00;96013.59;5029759;28;20069;-77
2022/06/07 10:03:23;;;;;;;19.95;14.85;;;;;;;14.53;100.00;96012.44;5029258;28;20045;-76
2022/06/07 10:06:04;;;;;;;20.40;14.38;;;;;;;14.53;100.00;96009.69;5029676;28;20045;-76
2022/06/07 10:08:42;;;;;;;16.63;12.10;;;;;;;14.46;100.00;96006.72;5029396;28;20042;-75
2022/06/07 10:11:15;;;;;;;17.80;13.45;;;;;;;14.38;100.00;96019.44;5027968;28;20404;-81
2022/06/07 10:13:53;;;;;;;17.33;12.23;;;;;;;14.35;100.00;96011.91;5029416;28;20049;-76
2022/06/07 10:16:26;;;;;;;13.73;11.68;;;;;;;14.25;100.00;96013.25;5029301;28;20057;-77
2022/06/07 10:19:03;;;;;;;15.75;12.38;;;;;;;14.19;100.00;96011.88;5029600;28;20103;-76
2022/06/07 10:21:55;;;;;;;18.67;12.70;;;;;;;14.12;100.00;96014.44;5029357;28;20053;-77
2022/06/07 10:24:34;;;;;;;22.02;14.68;;;;;;;14.07;100.00;96017.41;5028999;28;20071;-77
2022/06/07 10:27:12;;;;;;;18.55;14.50;;;;;;;14.14;100.00;96017.59;5029554;28;20041;-76
2022/06/07 10:30:01;;;;;;;21.33;13.13;;;;;;;14.01;100.00;96016.88;5029200;28;20049;-77
2022/06/07 10:32:40;;;;;;;17.77;13.52;;;;;;;14.02;100.00;96021.19;5029215;28;20532;-76
2022/06/07 10:35:18;;;;;;;19.65;13.27;;;;;;;14.01;100.00;96016.88;5029102;28;20056;-76
2022/06/07 10:37:59;;;;;;;18.25;13.73;;;;;;;14.10;100.00;96005.78;5029476;28;20632;-78
2022/06/07 10:40:32;;;;;;;20.05;14.45;;;;;;;14.09;100.00;96021.41;5025630;28;20037;-79
2022/06/07 10:43:05;;;;;;;18.00;13.10;;;;;;;14.09;100.00;96010.47;5029316;28;20448;-77
2022/06/07 10:45:36;;;;;;;13.18;11.18;;;;;;;14.17;100.00;96016.13;5029281;28;20061;-78
2022/06/07 10:48:10;;;;;;;18.65;12.40;;;;;;;14.07;100.00;96022.91;5030799;28;20045;-76
2022/06/07 10:50:44;;;;;;;17.63;12.30;;;;;;;14.07;100.00;96028.38;5033195;28;20056;-77
2022/06/07 10:53:20;;;;;;;14.73;12.10;;;;;;;14.11;100.00;96021.06;5032176;28;20053;-78
2022/06/07 10:55:51;;;;;;;22.88;14.43;;;;;;;14.20;100.00;96023.63;5032873;28;20508;-77
2022/06/07 10:58:31;;;;;;;17.73;12.45;;;;;;;14.33;100.00;96019.69;5032427;28;20527;-77
2022/06/07 11:01:03;;;;;;;16.15;10.80;;;;;;;14.44;100.00;96025.47;5032756;28;20057;-78
2022/06/07 11:03:41;;;;;;;17.90;13.63;;;;;;;14.48;100.00;96037.34;5032483;28;20124;-77
2022/06/07 11:09:21;;;;;;;14.52;11.57;;;;;;;14.78;100.00;96030.31;5032165;28;20056;-78
2022/06/07 11:11:50;;;;;;;15.48;12.65;;;;;;;14.79;100.00;96033.84;5032219;28;20080;-78
2022/06/07 11:14:39;;;;;;;15.95;10.75;;;;;;;14.87;100.00;96032.88;5031905;28;20060;-78
2022/06/07 11:17:19;;;;;;;13.05;10.55;;;;;;;14.87;100.00;96055.59;5032091;28;20037;-77
2022/06/07 11:19:46;;;;;;;12.10;9.82;;;;;;;14.93;100.00;96066.31;5032520;28;20052;-77
2022/06/07 11:22:20;;;;;;;13.43;9.77;;;;;;;14.98;100.00;96072.34;5031871;28;20045;-78
2022/06/07 11:24:55;;;;;;;10.70;8.90;;;;;;;14.98;100.00;96142.81;5032015;28;20523;-78
2022/06/07 11:27:24;;;;;;;16.40;9.90;;;;;;;15.02;100.00;96139.03;5031830;28;20049;-78
2022/06/07 11:30:20;;;;;;;12.25;8.88;;;;;;;15.03;100.00;96145.31;5032188;28;20041;-77
2022/06/07 11:32:54;;;;;;;12.13;9.70;;;;;;;15.18;100.00;96124.53;5031890;28;20050;-78
2022/06/07 11:35:43;;;;;;;13.32;11.40;;;;;;;15.23;100.00;96116.84;5031312;28;20084;-78
2022/06/07 11:38:22;;;;;;;9.48;8.50;;;;;;;15.26;100.00;96162.78;5031464;28;20184;-78
2022/06/07 11:40:51;;;;;;;10.15;7.97;;;;;;;15.38;100.00;96150.91;5028614;28;20046;-78
2022/06/07 11:43:49;;;;;;;11.48;9.32;;;;;;;15.51;99.89;96171.66;5031388;28;20057;-78
2022/06/07 11:46:23;;;;;;;12.50;8.90;;;;;;;15.39;98.60;96180.72;5031403;28;20064;-78
2022/06/07 11:48:49;;;;;;;9.93;8.30;;;;;;;15.40;96.39;96192.53;5031604;28;20038;-77
2022/06/07 11:51:18;;;;;;;8.45;7.00;;;;;;;15.51;97.20;96185.38;5031396;28;20052;-78
2022/06/07 11:53:59;;;;;;;10.13;7.55;;;;;;;15.66;97.95;96178.31;5031371;28;20564;-78
2022/06/07 11:56:33;;;;;;;9.57;8.30;;;;;;;15.68;96.95;96186.97;5031160;28;20041;-80
2022/06/07 11:59:02;;;;;;;11.38;9.07;;;;;;;15.81;96.46;96182.19;5031624;28;20045;-78
2022/06/07 12:01:42;;;;;;;11.77;8.75;;;;;;;15.67;95.64;96185.38;5031205;28;20045;-79